Time;durP1;ratioP1;P1;durP2;ratioP2;P2;SDS_P1;SDS_P2;PMS_P1;PMS_P2;Temp;Humidity;BMP_temperature;BMP_pressure;BME280_temperature;BME280_humidity;BME280_pressure;Samples;Min_cycle;Max_cycle;Signal;HPM_P1;HPM_P2
2021/11/15 00:01:15;;;;;;;36.15;16.48;;;;;;;8.30;97.98;102804.72;5071965;28;20184;-69
2021/11/15 00:03:45;;;;;;;36.53;15.98;;;;;;;8.32;98.35;102799.41;5067025;28;20058;-70
2021/11/15 00:06:13;;;;;;;34.75;14.25;;;;;;;8.30;98.59;102798.50;5072017;28;20076;-69
2021/11/15 00:08:42;;;;;;;36.63;14.63;;;;;;;8.30;98.44;102798.50;5068552;28;20312;-69
2021/11/15 00:11:11;;;;;;;40.08;17.70;;;;;;;8.30;98.98;102798.50;5071613;28;20051;-69
2021/11/15 00:13:39;;;;;;;36.25;17.63;;;;;;;8.28;98.50;102789.63;5066125;28;20472;-69
2021/11/15 00:16:07;;;;;;;38.15;16.02;;;;;;;8.31;98.76;102795.88;5073050;28;20044;-70
2021/11/15 00:18:35;;;;;;;39.28;16.52;;;;;;;8.29;98.45;102797.63;5067464;28;20052;-67
2021/11/15 00:21:03;;;;;;;35.58;16.00;;;;;;;8.26;98.36;102799.34;5072898;28;20499;-68
2021/11/15 00:23:30;;;;;;;42.00;17.73;;;;;;;8.23;99.19;102801.09;5067573;28;20059;-71
2021/11/15 00:25:59;;;;;;;38.38;16.85;;;;;;;8.23;99.22;102800.22;5070797;28;20075;-68
2021/11/15 00:28:27;;;;;;;36.28;16.40;;;;;;;8.21;99.30;102797.53;5068665;28;20124;-68
2021/11/15 00:30:55;;;;;;;40.95;18.25;;;;;;;8.19;99.41;102803.75;5067846;28;20052;-70
2021/11/15 00:33:23;;;;;;;39.63;17.85;;;;;;;8.20;99.63;102800.19;5068763;28;20065;-70
2021/11/15 00:35:51;;;;;;;42.03;18.35;;;;;;;8.17;99.53;102790.44;5065704;28;20567;-70
2021/11/15 00:38:19;;;;;;;41.75;17.02;;;;;;;8.18;100.00;102788.66;5074823;28;20574;-69
2021/11/15 00:40:48;;;;;;;40.90;17.83;;;;;;;8.17;99.90;102792.19;5068521;28;20050;-70
2021/11/15 00:43:18;;;;;;;34.92;16.23;;;;;;;8.19;100.00;102796.66;5070076;28;20142;-70
2021/11/15 00:45:45;;;;;;;42.60;17.20;;;;;;;8.17;100.00;102793.09;5063443;28;20052;-70
2021/11/15 00:48:13;;;;;;;39.85;17.05;;;;;;;8.14;100.00;102795.72;5068759;28;20097;-69
2021/11/15 00:50:42;;;;;;;38.00;17.08;;;;;;;8.14;100.00;102798.38;5067682;28;20290;-69
2021/11/15 00:53:09;;;;;;;39.08;16.90;;;;;;;8.15;100.00;102791.28;5067208;28;20332;-69
2021/11/15 00:55:37;;;;;;;37.20;15.73;;;;;;;8.14;99.41;102786.81;5068882;28;20143;-69
2021/11/15 00:58:06;;;;;;;41.65;17.25;;;;;;;8.14;98.94;102792.13;5070102;28;20083;-69
2021/11/15 01:00:37;;;;;;;41.40;16.75;;;;;;;8.19;98.68;102785.13;5068041;28;20134;-69
2021/11/15 01:03:07;;;;;;;34.50;16.48;;;;;;;8.13;98.96;102783.28;5069800;28;20060;-69
2021/11/15 01:05:36;;;;;;;42.90;17.15;;;;;;;8.10;99.53;102787.69;5067681;28;20385;-69
2021/11/15 01:08:05;;;;;;;34.50;17.02;;;;;;;8.12;99.59;102791.25;5069860;28;20131;-69
2021/11/15 01:10:34;;;;;;;36.75;17.13;;;;;;;8.09;99.68;102784.16;5069160;28;20636;-69
2021/11/15 01:13:02;;;;;;;34.90;16.30;;;;;;;8.04;99.20;102783.22;5063520;28;20044;-69
2021/11/15 01:15:32;;;;;;;36.55;16.60;;;;;;;8.08;98.77;102778.81;5067621;28;20052;-69
2021/11/15 01:18:02;;;;;;;33.90;15.98;;;;;;;8.13;98.58;102779.75;5070909;28;20048;-69
2021/11/15 01:20:32;;;;;;;36.80;15.88;;;;;;;8.10;98.51;102777.06;5070135;28;20147;-69
2021/11/15 01:23:00;;;;;;;41.58;17.38;;;;;;;8.05;98.55;102782.31;5068861;28;20549;-69
2021/11/15 01:25:29;;;;;;;35.38;16.92;;;;;;;8.09;98.61;102781.50;5071604;28;20045;-69
2021/11/15 01:27:56;;;;;;;40.47;16.58;;;;;;;8.15;98.04;102783.31;5063508;28;20171;-69
2021/11/15 01:30:25;;;;;;;35.28;16.00;;;;;;;8.15;97.48;102773.53;5073007;28;20149;-69
2021/11/15 01:32:54;;;;;;;32.60;14.38;;;;;;;8.14;97.27;102774.44;5067088;28;20062;-69
2021/11/15 01:35:24;;;;;;;34.95;15.63;;;;;;;8.12;97.10;102768.22;5065351;28;20112;-69
2021/11/15 01:37:53;;;;;;;36.15;16.80;;;;;;;8.12;97.02;102775.28;5064820;28;20048;-69
2021/11/15 01:40:24;;;;;;;29.90;14.25;;;;;;;8.11;95.94;102766.44;5071949;28;20050;-69
2021/11/15 01:42:53;;;;;;;30.20;14.73;;;;;;;8.07;96.07;102761.97;5071931;28;20131;-69
2021/11/15 01:45:24;;;;;;;35.40;16.77;;;;;;;8.02;96.39;102763.69;5073216;28;20553;-69
2021/11/15 01:47:53;;;;;;;32.13;15.18;;;;;;;8.00;97.23;102761.03;5069258;28;20089;-69
2021/11/15 01:50:24;;;;;;;35.33;16.05;;;;;;;8.00;97.48;102766.34;5073993;28;20387;-69
2021/11/15 01:52:53;;;;;;;35.83;15.35;;;;;;;8.02;97.57;102758.38;5068941;28;20486;-69
2021/11/15 01:55:23;;;;;;;36.00;15.25;;;;;;;8.03;97.13;102761.03;5068670;28;20088;-69
2021/11/15 01:57:52;;;;;;;30.85;15.38;;;;;;;7.98;96.87;102768.06;5071764;28;20495;-69
2021/11/15 02:00:23;;;;;;;37.05;15.27;;;;;;;8.00;97.15;102774.31;5073685;28;20300;-69
2021/11/15 02:02:51;;;;;;;35.05;15.30;;;;;;;8.01;96.64;102765.44;5072824;28;20080;-69
2021/11/15 02:05:20;;;;;;;28.85;13.25;;;;;;;8.03;96.89;102768.13;5068477;28;20515;-69
2021/11/15 02:07:49;;;;;;;33.72;14.07;;;;;;;7.93;96.56;102764.47;5076768;28;20054;-69
2021/11/15 02:10:18;;;;;;;36.72;15.63;;;;;;;7.98;96.44;102773.38;5071572;28;20044;-75
2021/11/15 02:12:46;;;;;;;34.22;14.57;;;;;;;7.95;96.96;102772.47;5064610;28;20052;-75
2021/11/15 02:15:15;;;;;;;35.17;14.82;;;;;;;7.92;97.34;102765.38;5071987;28;20066;-75
2021/11/15 02:17:45;;;;;;;31.77;14.65;;;;;;;7.89;97.01;102768.00;5072895;28;20340;-75
2021/11/15 02:20:16;;;;;;;32.20;15.07;;;;;;;7.90;96.96;102767.13;5072626;28;20036;-75
2021/11/15 02:22:44;;;;;;;30.98;13.30;;;;;;;7.94;96.47;102768.06;5073741;28;20252;-75
2021/11/15 02:25:15;;;;;;;28.50;13.27;;;;;;;7.99;96.22;102771.66;5069647;28;20465;-75
2021/11/15 02:27:43;;;;;;;30.75;14.40;;;;;;;7.91;96.35;102766.25;5073212;28;20063;-75
2021/11/15 02:30:15;;;;;;;32.70;13.52;;;;;;;8.02;95.51;102769.03;5070997;28;20052;-75
2021/11/15 02:32:43;;;;;;;30.35;15.05;;;;;;;7.92;96.03;102770.69;5069117;28;20070;-75
2021/11/15 02:35:12;;;;;;;32.17;13.77;;;;;;;7.90;96.16;102768.88;5071743;28;20058;-69
2021/11/15 02:37:43;;;;;;;32.00;13.90;;;;;;;7.87;96.54;102775.06;5070523;28;20059;-69
2021/11/15 02:40:12;;;;;;;30.48;14.60;;;;;;;7.87;96.54;102769.75;5072138;28;20323;-69
2021/11/15 02:42:41;;;;;;;32.58;15.43;;;;;;;7.86;97.11;102762.66;5066556;28;20070;-69
2021/11/15 02:45:11;;;;;;;31.85;14.65;;;;;;;7.91;96.92;102768.91;5074532;28;20186;-75
2021/11/15 02:47:39;;;;;;;34.08;14.75;;;;;;;7.85;97.42;102751.13;5066996;28;20044;-75
2021/11/15 02:50:12;;;;;;;33.05;15.25;;;;;;;7.84;97.54;102759.97;5076515;28;20052;-69
2021/11/15 02:52:43;;;;;;;35.85;15.32;;;;;;;7.81;97.74;102749.31;5064385;28;20131;-69
2021/11/15 02:55:11;;;;;;;34.10;15.27;;;;;;;7.83;97.89;102757.28;5072469;28;20280;-76
2021/11/15 02:57:39;;;;;;;40.83;16.52;;;;;;;7.82;98.15;102755.53;5069700;28;20693;-75
2021/11/15 03:00:17;;;;;;;34.40;15.73;;;;;;;7.79;97.72;102751.06;5072204;28;20052;-75
2021/11/15 03:02:45;;;;;;;39.22;14.75;;;;;;;7.84;97.68;102744.03;5070708;28;20057;-75
2021/11/15 03:05:14;;;;;;;28.77;14.05;;;;;;;7.85;97.37;102753.78;5069602;28;20043;-76
2021/11/15 03:07:46;;;;;;;32.42;13.85;;;;;;;7.83;97.16;102752.88;5070936;28;20165;-76
2021/11/15 03:10:14;;;;;;;32.20;14.48;;;;;;;7.81;97.76;102748.41;5070642;28;20128;-74
2021/11/15 03:12:42;;;;;;;30.30;13.77;;;;;;;7.79;97.73;102752.84;5066176;28;20046;-74
2021/11/15 03:15:10;;;;;;;28.83;12.27;;;;;;;7.84;96.65;102759.97;5069254;28;20055;-74
2021/11/15 03:17:40;;;;;;;32.05;14.05;;;;;;;7.82;95.38;102759.06;5069584;28;20654;-73
2021/11/15 03:20:09;;;;;;;31.88;14.02;;;;;;;7.76;96.19;102758.13;5072190;28;20052;-76
2021/11/15 03:22:37;;;;;;;29.63;14.23;;;;;;;7.76;95.81;102764.31;5071548;28;20044;-67
2021/11/15 03:25:07;;;;;;;28.40;13.75;;;;;;;7.80;95.79;102766.16;5066517;28;20044;-68
2021/11/15 03:27:35;;;;;;;26.55;13.10;;;;;;;7.76;96.02;102761.66;5075970;28;20097;-69
2021/11/15 03:30:05;;;;;;;29.17;13.20;;;;;;;7.75;96.80;102759.88;5065099;28;20105;-68
2021/11/15 03:32:34;;;;;;;33.20;15.32;;;;;;;7.79;95.77;102760.81;5070779;28;20147;-68
2021/11/15 03:35:03;;;;;;;29.02;13.52;;;;;;;7.73;96.51;102761.66;5067039;28;20048;-68
2021/11/15 03:37:32;;;;;;;28.88;13.48;;;;;;;7.71;96.02;102750.09;5072849;28;20531;-74
2021/11/15 03:40:00;;;;;;;27.17;12.25;;;;;;;7.73;96.35;102753.69;5069064;28;20092;-74
2021/11/15 03:42:30;;;;;;;29.80;12.57;;;;;;;7.70;96.94;102756.28;5066483;28;20051;-74
2021/11/15 03:44:58;;;;;;;29.83;13.05;;;;;;;7.72;97.19;102758.97;5069233;28;20044;-75
2021/11/15 03:47:25;;;;;;;29.33;13.55;;;;;;;7.70;97.73;102753.63;5069599;28;20492;-74
2021/11/15 03:49:53;;;;;;;26.42;13.30;;;;;;;7.74;97.10;102754.56;5067826;28;20412;-74
2021/11/15 03:52:21;;;;;;;33.95;14.93;;;;;;;7.70;97.03;102758.94;5067384;28;20068;-74
2021/11/15 03:54:49;;;;;;;32.90;13.52;;;;;;;7.72;96.79;102757.19;5070864;28;20095;-76
2021/11/15 03:57:17;;;;;;;30.27;13.80;;;;;;;7.72;97.18;102764.28;5070297;28;20484;-76
2021/11/15 03:59:46;;;;;;;29.15;13.82;;;;;;;7.75;96.06;102775.84;5065597;28;20050;-76
2021/11/15 04:02:15;;;;;;;28.98;13.38;;;;;;;7.71;95.89;102768.69;5067453;28;20048;-74
2021/11/15 04:04:51;;;;;;;27.17;13.05;;;;;;;7.75;96.13;102764.31;5070266;28;20079;-75
2021/11/15 04:07:28;;;;;;;32.08;14.23;;;;;;;7.67;96.25;102754.47;5067535;28;20196;-75
2021/11/15 04:09:58;;;;;;;32.17;13.73;;;;;;;7.72;95.91;102761.63;5072748;28;20492;-74
2021/11/15 04:12:30;;;;;;;30.70;13.82;;;;;;;7.67;96.16;102761.56;5062709;28;20670;-74
2021/11/15 04:14:59;;;;;;;28.48;12.35;;;;;;;7.66;96.45;102770.41;5071025;28;20143;-75
2021/11/15 04:17:27;;;;;;;27.75;11.68;;;;;;;7.65;96.48;102761.56;5068623;28;20600;-75
2021/11/15 04:19:55;;;;;;;29.90;12.25;;;;;;;7.61;96.67;102759.75;5067848;28;21650;-75
2021/11/15 04:22:23;;;;;;;30.63;12.77;;;;;;;7.63;96.81;102762.44;5068188;28;20075;-75
2021/11/15 04:24:50;;;;;;;30.15;12.98;;;;;;;7.61;96.76;102773.03;5071186;28;20366;-74
2021/11/15 04:27:18;;;;;;;26.65;13.20;;;;;;;7.59;97.06;102765.91;5067859;28;20044;-69
2021/11/15 04:29:46;;;;;;;33.35;12.98;;;;;;;7.55;97.24;102764.09;5070167;28;20131;-75
2021/11/15 04:32:16;;;;;;;30.13;13.07;;;;;;;7.57;97.37;102767.66;5070296;28;20048;-75
2021/11/15 04:34:44;;;;;;;31.98;13.95;;;;;;;7.55;97.47;102764.97;5070552;28;20052;-75
2021/11/15 04:37:11;;;;;;;30.52;12.77;;;;;;;7.57;97.60;102765.00;5067923;28;20136;-75
2021/11/15 04:39:39;;;;;;;33.50;13.90;;;;;;;7.59;97.23;102768.56;5067612;28;20088;-75
2021/11/15 04:42:07;;;;;;;31.52;12.98;;;;;;;7.56;97.80;102765.88;5067023;28;20083;-75
2021/11/15 04:44:35;;;;;;;32.30;13.05;;;;;;;7.59;97.50;102771.22;5073097;28;21470;-75
2021/11/15 04:47:03;;;;;;;33.33;13.43;;;;;;;7.53;97.87;102758.78;5068369;28;20143;-68
2021/11/15 04:49:33;;;;;;;30.05;14.10;;;;;;;7.52;98.03;102770.25;5065856;28;20054;-69
2021/11/15 04:52:00;;;;;;;34.50;15.85;;;;;;;7.54;98.37;102768.50;5074075;28;20052;-69
2021/11/15 04:54:28;;;;;;;29.08;12.82;;;;;;;7.51;98.67;102759.59;5066111;28;20083;-69
2021/11/15 04:56:57;;;;;;;33.78;14.60;;;;;;;7.55;98.36;102759.66;5071898;28;20085;-69
2021/11/15 04:59:25;;;;;;;28.98;12.98;;;;;;;7.54;98.46;102771.16;5067301;28;20071;-69
2021/11/15 05:01:53;;;;;;;28.00;13.15;;;;;;;7.54;98.77;102770.28;5070538;28;20561;-68
2021/11/15 05:04:21;;;;;;;32.40;13.93;;;;;;;7.50;99.33;102769.34;5066776;28;20079;-69
2021/11/15 05:06:51;;;;;;;32.92;14.20;;;;;;;7.49;99.41;102772.88;5070124;28;20500;-68
2021/11/15 05:09:19;;;;;;;30.42;13.30;;;;;;;7.56;99.39;102774.75;5066098;28;20571;-70
2021/11/15 05:11:47;;;;;;;27.50;12.48;;;;;;;7.53;99.71;102765.84;5065390;28;20040;-68
2021/11/15 05:14:15;;;;;;;30.58;12.82;;;;;;;7.52;100.00;102777.34;5066039;28;20055;-68
2021/11/15 05:16:43;;;;;;;32.75;14.57;;;;;;;7.51;100.00;102763.19;5068725;28;20054;-68
2021/11/15 05:19:11;;;;;;;36.60;13.95;;;;;;;7.57;100.00;102760.56;5077301;28;20111;-69
2021/11/15 05:21:39;;;;;;;30.98;12.40;;;;;;;7.53;100.00;102763.19;5071723;28;20660;-68
2021/11/15 05:24:08;;;;;;;36.13;14.73;;;;;;;7.58;100.00;102762.38;5071478;28;20056;-69
2021/11/15 05:26:37;;;;;;;30.70;12.73;;;;;;;7.51;100.00;102770.22;5073951;28;20043;-69
2021/11/15 05:29:05;;;;;;;30.27;12.05;;;;;;;7.52;100.00;102770.25;5073734;28;20577;-71
2021/11/15 05:31:34;;;;;;;26.83;12.45;;;;;;;7.40;100.00;102768.34;5068895;28;20089;-69
2021/11/15 05:34:04;;;;;;;33.33;13.27;;;;;;;7.41;100.00;102764.81;5076819;28;20400;-68
2021/11/15 05:36:32;;;;;;;30.25;12.65;;;;;;;7.44;100.00;102777.25;5068550;28;20072;-74
2021/11/15 05:39:02;;;;;;;30.67;12.13;;;;;;;7.35;100.00;102772.72;5076184;28;20055;-75
2021/11/15 05:41:32;;;;;;;27.08;11.77;;;;;;;7.40;100.00;102778.97;5071116;28;20076;-74
2021/11/15 05:43:59;;;;;;;27.27;11.00;;;;;;;7.41;99.77;102777.22;5074389;28;20555;-76
2021/11/15 05:46:27;;;;;;;26.05;10.40;;;;;;;7.36;99.89;102778.94;5070865;28;20838;-75
2021/11/15 05:48:55;;;;;;;23.48;10.60;;;;;;;7.30;99.82;102782.38;5072507;28;20055;-69
2021/11/15 05:51:23;;;;;;;27.75;10.48;;;;;;;7.29;100.00;102786.81;5071458;28;20580;-69
2021/11/15 05:53:51;;;;;;;24.83;10.98;;;;;;;7.26;100.00;102784.13;5069885;28;20096;-68
2021/11/15 05:56:19;;;;;;;28.25;10.70;;;;;;;7.27;100.00;102775.28;5071751;28;20051;-74
2021/11/15 05:58:49;;;;;;;25.73;10.80;;;;;;;7.32;100.00;102783.31;5073701;28;20119;-74
2021/11/15 06:01:17;;;;;;;27.38;11.52;;;;;;;7.35;99.76;102786.00;5069623;28;20090;-69
2021/11/15 06:03:45;;;;;;;23.63;10.63;;;;;;;7.26;100.00;102778.81;5069218;28;20048;-69
2021/11/15 06:06:13;;;;;;;28.58;11.45;;;;;;;7.24;100.00;102788.53;5071981;28;20146;-69
2021/11/15 06:08:41;;;;;;;28.90;12.45;;;;;;;7.25;100.00;102785.00;5072044;28;20067;-69
2021/11/15 06:11:08;;;;;;;30.95;11.60;;;;;;;7.29;100.00;102792.13;5069661;28;20044;-68
2021/11/15 06:13:37;;;;;;;27.95;12.23;;;;;;;7.30;100.00;102785.03;5070618;28;20056;-69
2021/11/15 06:16:06;;;;;;;31.67;12.57;;;;;;;7.26;100.00;102789.44;5071288;28;20043;-69
2021/11/15 06:18:34;;;;;;;29.80;11.13;;;;;;;7.29;100.00;102793.91;5064906;28;20072;-69
2021/11/15 06:21:02;;;;;;;24.60;10.65;;;;;;;7.29;100.00;102800.09;5075805;28;20605;-69
2021/11/15 06:23:29;;;;;;;27.40;12.35;;;;;;;7.29;100.00;102793.91;5063201;28;20052;-75
2021/11/15 06:25:57;;;;;;;30.33;11.60;;;;;;;7.33;100.00;102790.41;5069705;28;20563;-74
2021/11/15 06:28:25;;;;;;;27.73;12.25;;;;;;;7.34;100.00;102791.28;5070408;28;20044;-75
2021/11/15 06:30:53;;;;;;;28.88;12.10;;;;;;;7.29;100.00;102785.94;5071510;28;20048;-74
2021/11/15 06:33:23;;;;;;;27.75;12.48;;;;;;;7.25;100.00;102798.28;5070520;28;20048;-74
2021/11/15 06:35:51;;;;;;;26.42;11.55;;;;;;;7.34;100.00;102796.59;5073429;28;20102;-68
2021/11/15 06:38:19;;;;;;;30.35;14.43;;;;;;;7.27;100.00;102787.66;5072316;28;20052;-68
2021/11/15 06:40:46;;;;;;;29.25;13.60;;;;;;;7.26;100.00;102799.16;5071671;28;20127;-68
2021/11/15 06:43:14;;;;;;;30.77;13.55;;;;;;;7.25;100.00;102797.38;5068102;28;20144;-68
2021/11/15 06:45:42;;;;;;;31.42;13.77;;;;;;;7.20;100.00;102794.69;5074294;28;20107;-68
2021/11/15 06:48:10;;;;;;;27.98;12.45;;;;;;;7.26;100.00;102789.44;5069652;28;20086;-69
2021/11/15 06:50:40;;;;;;;31.63;13.20;;;;;;;7.21;100.00;102793.78;5072974;28;20048;-68
2021/11/15 06:53:07;;;;;;;33.20;14.77;;;;;;;7.26;100.00;102786.78;5068707;28;20109;-68
2021/11/15 06:55:35;;;;;;;30.77;14.43;;;;;;;7.29;100.00;102793.91;5071170;28;20048;-68
2021/11/15 06:58:03;;;;;;;30.33;11.55;;;;;;;7.27;100.00;102791.22;5070753;28;20151;-73
2021/11/15 07:00:31;;;;;;;29.27;13.32;;;;;;;7.25;100.00;102786.75;5071415;28;20059;-74
2021/11/15 07:02:59;;;;;;;35.42;12.27;;;;;;;7.24;100.00;102799.16;5068632;28;20122;-74
2021/11/15 07:05:27;;;;;;;33.05;13.15;;;;;;;7.22;100.00;102800.91;5066668;28;20506;-74
2021/11/15 07:07:56;;;;;;;25.67;11.02;;;;;;;7.26;100.00;102808.00;5074589;28;20492;-74
2021/11/15 07:10:24;;;;;;;35.67;14.57;;;;;;;7.19;100.00;102810.59;5066133;28;20067;-68
2021/11/15 07:12:54;;;;;;;27.27;12.77;;;;;;;7.24;100.00;102815.06;5069671;28;20055;-69
2021/11/15 07:15:23;;;;;;;30.33;13.43;;;;;;;7.25;100.00;102822.19;5053330;28;20047;-69
2021/11/15 07:17:51;;;;;;;32.53;12.95;;;;;;;7.25;100.00;102821.28;5075386;28;20147;-70
2021/11/15 07:20:19;;;;;;;27.63;12.10;;;;;;;7.25;100.00;102827.50;5069096;28;20502;-70
2021/11/15 07:22:48;;;;;;;29.02;13.07;;;;;;;7.21;100.00;102827.44;5069245;28;20045;-69
2021/11/15 07:25:19;;;;;;;36.42;14.48;;;;;;;7.17;100.00;102821.19;5070799;28;20190;-70
2021/11/15 07:27:48;;;;;;;32.97;13.25;;;;;;;7.19;100.00;102824.75;5069049;28;20100;-70
2021/11/15 07:30:16;;;;;;;30.20;12.02;;;;;;;7.23;100.00;102823.91;5070016;28;20135;-68
2021/11/15 07:32:44;;;;;;;33.30;13.65;;;;;;;7.17;100.00;102820.28;5064859;28;20143;-68
2021/11/15 07:35:12;;;;;;;28.23;12.02;;;;;;;7.12;100.00;102822.88;5073287;28;20079;-69
2021/11/15 07:37:39;;;;;;;31.40;13.60;;;;;;;7.19;100.00;102834.47;5067416;28;20464;-68
2021/11/15 07:40:11;;;;;;;33.35;14.23;;;;;;;7.20;100.00;102823.88;5067487;28;20054;-68
2021/11/15 07:42:41;;;;;;;30.58;13.23;;;;;;;7.19;100.00;102821.22;5067492;28;20062;-68
2021/11/15 07:45:10;;;;;;;30.52;12.82;;;;;;;7.11;100.00;102821.97;5066281;28;20526;-68
2021/11/15 07:47:40;;;;;;;29.08;13.70;;;;;;;7.19;100.00;102821.22;5068542;28;20056;-68
2021/11/15 07:50:09;;;;;;;36.42;14.13;;;;;;;7.19;100.00;102815.91;5071182;28;20401;-70
2021/11/15 07:52:37;;;;;;;34.55;13.90;;;;;;;7.16;100.00;102822.03;5062044;28;20048;-69
2021/11/15 07:55:06;;;;;;;36.55;13.52;;;;;;;7.17;100.00;102822.91;5070792;28;20504;-69
2021/11/15 07:57:35;;;;;;;36.58;15.00;;;;;;;7.19;100.00;102826.53;5062271;28;20135;-68
2021/11/15 08:00:06;;;;;;;32.53;13.55;;;;;;;7.20;100.00;102830.94;5067903;28;20464;-69
2021/11/15 08:02:34;;;;;;;36.83;15.07;;;;;;;7.19;100.00;102822.09;5067138;28;20384;-69
2021/11/15 08:05:02;;;;;;;35.75;14.40;;;;;;;7.17;100.00;102818.53;5072775;28;20048;-69
2021/11/15 08:07:30;;;;;;;36.65;15.25;;;;;;;7.16;100.00;102813.19;5067966;28;20515;-69
2021/11/15 08:09:58;;;;;;;32.42;13.18;;;;;;;7.19;100.00;102816.78;5068504;28;20044;-69
2021/11/15 08:12:35;;;;;;;33.22;13.93;;;;;;;7.14;100.00;102817.59;5068070;28;20174;-69
2021/11/15 08:15:07;;;;;;;35.67;14.85;;;;;;;7.12;100.00;102822.88;5067559;28;20140;-68
2021/11/15 08:17:36;;;;;;;33.10;15.27;;;;;;;7.13;100.00;102807.84;5067568;28;20135;-68
2021/11/15 08:20:05;;;;;;;35.63;17.65;;;;;;;7.16;100.00;102813.19;5067969;28;20043;-69
2021/11/15 08:22:33;;;;;;;35.95;14.25;;;;;;;7.15;100.00;102814.06;5068851;28;20127;-68
2021/11/15 08:25:58;;;;;;;37.10;14.05;;;;;;;7.07;100.00;102819.28;5066730;28;20056;-68
2021/11/15 08:28:26;;;;;;;38.35;14.30;;;;;;;7.12;100.00;102817.56;5072439;28;20526;-69
2021/11/15 08:30:57;;;;;;;36.50;14.02;;;;;;;7.13;100.00;102819.34;5067996;28;20565;-68
2021/11/15 08:33:28;;;;;;;33.40;13.68;;;;;;;7.14;100.00;102820.25;5067164;28;20158;-68
2021/11/15 08:35:56;;;;;;;36.47;14.52;;;;;;;7.16;100.00;102814.06;5066931;28;20052;-73
2021/11/15 08:38:42;;;;;;;33.53;15.73;;;;;;;7.15;100.00;102811.41;5069587;28;20040;-73
2021/11/15 08:41:11;;;;;;;31.52;15.30;;;;;;;7.14;100.00;102814.94;5072092;28;20056;-74
2021/11/15 08:43:39;;;;;;;36.13;14.68;;;;;;;7.12;100.00;102820.22;5070410;28;20059;-73
2021/11/15 08:46:09;;;;;;;35.80;13.45;;;;;;;7.18;100.00;102814.09;5067422;28;20180;-73
2021/11/15 08:48:37;;;;;;;32.85;14.77;;;;;;;7.15;100.00;102804.34;5067112;28;20437;-74
2021/11/15 08:51:07;;;;;;;33.55;13.95;;;;;;;7.06;100.00;102805.09;5065478;28;20052;-74
2021/11/15 08:53:35;;;;;;;35.13;12.68;;;;;;;7.07;100.00;102809.53;5063132;28;20064;-68
2021/11/15 08:56:03;;;;;;;31.55;13.13;;;;;;;7.10;100.00;102806.94;5064765;28;20056;-68
2021/11/15 08:58:31;;;;;;;30.63;13.65;;;;;;;7.08;100.00;102814.00;5064848;28;20075;-69
2021/11/15 09:01:01;;;;;;;36.90;14.10;;;;;;;7.03;100.00;102817.44;5071878;28;21344;-68
2021/11/15 09:03:30;;;;;;;30.80;12.30;;;;;;;7.09;100.00;102807.78;5066067;28;20571;-68
2021/11/15 09:05:59;;;;;;;30.50;12.07;;;;;;;7.00;100.00;102815.63;5065964;28;20044;-69
2021/11/15 09:08:27;;;;;;;34.60;13.82;;;;;;;7.04;100.00;102816.56;5067229;28;20105;-69
2021/11/15 09:10:55;;;;;;;34.72;14.48;;;;;;;7.04;100.00;102819.22;5072529;28;20502;-69
2021/11/15 09:13:23;;;;;;;34.28;12.43;;;;;;;6.99;100.00;102815.63;5064487;28;20086;-74
2021/11/15 09:15:51;;;;;;;30.55;12.60;;;;;;;7.05;100.00;102816.59;5069641;28;20082;-75
2021/11/15 09:18:19;;;;;;;30.92;12.63;;;;;;;7.09;100.00;102812.22;5066330;28;20079;-75
2021/11/15 09:20:48;;;;;;;31.88;11.85;;;;;;;7.10;100.00;102820.19;5067509;28;20247;-73
2021/11/15 09:23:17;;;;;;;33.92;13.57;;;;;;;7.13;100.00;102811.38;5066724;28;20060;-75
2021/11/15 09:25:45;;;;;;;29.67;12.15;;;;;;;7.12;100.00;102812.25;5071957;28;20151;-72
2021/11/15 09:28:13;;;;;;;35.65;14.13;;;;;;;7.13;100.00;102815.81;5068556;28;20078;-72
2021/11/15 09:30:43;;;;;;;32.22;12.07;;;;;;;7.07;100.00;102809.53;5068946;28;20043;-72
2021/11/15 09:33:12;;;;;;;36.03;13.73;;;;;;;7.09;100.00;102806.91;5070069;28;20081;-72
2021/11/15 09:35:44;;;;;;;34.10;13.20;;;;;;;7.17;100.00;102807.91;5068080;28;20194;-72
2021/11/15 09:38:13;;;;;;;32.97;13.90;;;;;;;7.11;100.00;102800.72;5067647;28;20077;-73
2021/11/15 09:40:41;;;;;;;33.38;13.23;;;;;;;7.07;100.00;102803.34;5069016;28;20056;-73
2021/11/15 09:43:09;;;;;;;32.83;14.02;;;;;;;7.05;100.00;102799.78;5069234;28;20071;-73
2021/11/15 09:45:37;;;;;;;35.50;13.52;;;;;;;7.01;100.00;102806.78;5065117;28;20109;-73
2021/11/15 09:48:09;;;;;;;32.25;13.75;;;;;;;6.99;100.00;102799.69;5070415;28;20134;-73
2021/11/15 09:50:37;;;;;;;35.55;14.68;;;;;;;7.01;100.00;102798.81;5066814;28;20117;-73
2021/11/15 09:53:06;;;;;;;34.65;13.00;;;;;;;7.03;100.00;102796.19;5065034;28;20048;-73
2021/11/15 09:55:36;;;;;;;30.98;12.70;;;;;;;7.06;100.00;102788.28;5068719;28;20195;-73
2021/11/15 09:58:04;;;;;;;31.80;12.75;;;;;;;7.08;100.00;102791.84;5070020;28;20074;-73
2021/11/15 10:00:38;;;;;;;37.95;14.45;;;;;;;7.01;100.00;102788.19;5068445;28;20078;-71
2021/11/15 10:03:06;;;;;;;;;;;;;;;7.09;100.00;102793.63;5071968;28;20938;-68
2021/11/15 10:05:34;;;;;;;30.48;12.05;;;;;;;7.05;100.00;102792.69;5071702;28;20489;-71
2021/11/15 10:08:09;;;;;;;35.90;12.95;;;;;;;7.06;100.00;102790.94;5070537;28;21239;-70
2021/11/15 10:10:43;;;;;;;30.10;12.55;;;;;;;7.10;100.00;102801.63;5072597;28;20146;-68
2021/11/15 10:13:17;;;;;;;;;;;;;;;7.11;100.00;102797.19;5066105;28;20056;-68
2021/11/15 10:15:52;;;;;;;37.03;13.15;;;;;;;7.15;100.00;102806.09;5070986;28;20007;-68
2021/11/15 10:18:29;;;;;;;38.63;14.80;;;;;;;7.16;100.00;102811.41;5071199;28;20533;-68
2021/11/15 10:20:57;;;;;;;36.90;14.02;;;;;;;7.20;100.00;102812.34;5071630;28;20052;-68
2021/11/15 10:23:35;;;;;;;34.45;13.50;;;;;;;7.13;100.00;102808.72;5069825;28;20117;-68
2021/11/15 10:26:15;;;;;;;41.88;16.85;;;;;;;7.16;100.00;102803.47;5071634;28;20286;-68
2021/11/15 10:28:44;;;;;;;31.60;13.07;;;;;;;7.16;100.00;102803.47;5070086;28;20044;-68
2021/11/15 10:31:31;;;;;;;37.78;15.73;;;;;;;7.08;100.00;102803.38;5068782;28;20601;-74
2021/11/15 10:33:59;;;;;;;34.80;14.15;;;;;;;7.03;100.00;102798.84;5069598;28;20068;-74
2021/11/15 10:36:54;;;;;;;34.58;14.13;;;;;;;7.05;100.00;102787.41;5068052;28;20080;-68
2021/11/15 10:39:24;;;;;;;35.10;14.93;;;;;;;7.03;100.00;102791.78;5073988;28;20072;-68
2021/11/15 10:42:00;;;;;;;41.92;17.25;;;;;;;6.96;100.00;102797.88;5066810;28;20132;-68
2021/11/15 10:44:29;;;;;;;37.08;15.32;;;;;;;7.06;100.00;102797.13;5067626;28;20155;-68
2021/11/15 10:46:59;;;;;;;37.85;15.57;;;;;;;7.06;100.00;102796.25;5070049;28;20075;-68
2021/11/15 10:49:27;;;;;;;38.67;15.30;;;;;;;7.03;100.00;102794.44;5072833;28;20703;-74
2021/11/15 10:51:59;;;;;;;39.50;14.88;;;;;;;7.09;100.00;102789.19;5070174;28;20052;-74
2021/11/15 10:54:51;;;;;;;38.33;15.48;;;;;;;7.08;100.00;102797.16;5067053;28;20737;-74
2021/11/15 10:57:26;;;;;;;37.10;14.13;;;;;;;7.08;100.00;102792.75;5069058;28;20388;-74
2021/11/15 11:00:28;;;;;;;36.33;15.27;;;;;;;7.10;100.00;102792.78;5073925;28;20048;-74
2021/11/15 11:03:05;;;;;;;37.05;13.82;;;;;;;7.02;100.00;102778.50;5075111;28;20134;-68
2021/11/15 11:05:35;;;;;;;34.47;14.45;;;;;;;7.00;100.00;102773.16;5066159;28;20105;-67
2021/11/15 11:08:12;;;;;;;34.50;15.00;;;;;;;6.96;100.00;102773.09;5069830;28;20109;-68
2021/11/15 11:11:00;;;;;;;32.90;13.55;;;;;;;7.02;100.00;102776.72;5071310;28;20318;-67
2021/11/15 11:13:41;;;;;;;39.15;15.23;;;;;;;7.09;100.00;102775.03;5069019;28;20142;-68
2021/11/15 11:16:15;;;;;;;31.67;13.63;;;;;;;7.09;100.00;102770.63;5070181;28;20749;-69
2021/11/15 11:18:45;;;;;;;29.92;12.43;;;;;;;7.01;100.00;102769.63;5070133;28;20442;-68
2021/11/15 11:24:21;;;;;;;34.20;12.68;;;;;;;7.04;100.00;102767.00;5065098;28;20044;-68
2021/11/15 11:26:55;;;;;;;35.10;13.85;;;;;;;6.98;100.00;102761.66;5072709;28;20084;-68
2021/11/15 11:29:25;;;;;;;;;;;;;;;6.98;100.00;102766.03;5071716;28;20036;-68